createdAt,value
2023-04-06T00:00:39.768Z,0.00
2023-04-06T00:01:39.770Z,0.00
2023-04-06T00:02:39.767Z,0.00
2023-04-06T00:03:44.803Z,0.00
2023-04-06T00:04:39.717Z,0.00
2023-04-06T00:05:39.704Z,0.00
2023-04-06T00:06:39.700Z,0.00
2023-04-06T00:07:39.680Z,0.00
2023-04-06T00:08:39.681Z,0.00
2023-04-06T00:09:39.660Z,0.00
2023-04-06T00:10:39.647Z,0.00
2023-04-06T00:11:39.649Z,0.00
2023-04-06T00:12:39.626Z,0.00
2023-04-06T00:13:39.615Z,0.00
2023-04-06T00:14:44.643Z,0.00
2023-04-06T00:15:39.610Z,0.00
2023-04-06T00:16:39.622Z,0.00
2023-04-06T00:17:39.610Z,0.00
2023-04-06T00:18:39.555Z,0.00
2023-04-06T00:19:39.546Z,0.00
2023-04-06T00:20:39.534Z,0.00
2023-04-06T00:21:39.601Z,0.00
2023-04-06T00:22:39.510Z,0.00
2023-04-06T00:23:39.500Z,0.00
2023-04-06T00:24:39.495Z,0.00
2023-04-06T00:25:44.503Z,0.00
2023-04-06T00:26:39.472Z,0.00
2023-04-06T00:27:39.469Z,0.00
2023-04-06T00:28:39.447Z,0.00
2023-04-06T00:29:39.433Z,0.00
2023-04-06T00:30:39.445Z,0.00
2023-04-06T00:31:39.466Z,0.00
2023-04-06T00:32:39.428Z,0.00
2023-04-06T00:33:39.398Z,0.00
2023-04-06T00:34:39.380Z,0.00
2023-04-06T00:35:39.439Z,0.00
2023-04-06T00:36:44.393Z,0.00
2023-04-06T00:37:39.346Z,0.00
2023-04-06T00:38:39.330Z,0.00
2023-04-06T00:39:39.330Z,0.00
2023-04-06T00:40:39.307Z,0.00
2023-04-06T00:41:39.308Z,0.00
2023-04-06T00:42:39.289Z,0.00
2023-04-06T00:43:39.276Z,0.00
2023-04-06T00:44:39.263Z,0.00
2023-04-06T00:45:39.279Z,0.00
2023-04-06T00:46:39.287Z,0.00
2023-04-06T00:47:44.296Z,0.00
2023-04-06T00:48:39.217Z,0.00
2023-04-06T00:49:39.212Z,0.00
2023-04-06T00:50:39.204Z,0.00
2023-04-06T00:51:39.212Z,0.00
2023-04-06T00:52:39.175Z,0.00
2023-04-06T00:53:39.169Z,0.00
2023-04-06T00:54:39.150Z,0.00
2023-04-06T00:55:39.147Z,0.00
2023-04-06T00:56:39.139Z,0.00
2023-04-06T00:57:39.125Z,0.00
2023-04-06T00:58:44.126Z,0.00
2023-04-06T00:59:39.132Z,0.00
2023-04-06T01:00:39.082Z,0.00
2023-04-06T01:01:39.121Z,0.00
2023-04-06T01:02:39.154Z,0.00
2023-04-06T01:03:39.061Z,0.00
2023-04-06T01:04:39.040Z,0.00
2023-04-06T01:05:39.076Z,0.00
2023-04-06T01:06:39.032Z,0.00
2023-04-06T01:07:39.008Z,0.00
2023-04-06T01:08:39.004Z,0.00
2023-04-06T01:09:44.017Z,0.00
2023-04-06T01:10:38.973Z,0.00
2023-04-06T01:11:38.974Z,0.00
2023-04-06T01:12:38.960Z,0.00
2023-04-06T01:13:38.937Z,0.00
2023-04-06T01:14:38.925Z,0.00
2023-04-06T01:15:38.965Z,0.00
2023-04-06T01:16:38.911Z,0.00
2023-04-06T01:17:38.916Z,0.00
2023-04-06T01:18:38.905Z,0.00
2023-04-06T01:19:38.874Z,0.00
2023-04-06T01:20:43.880Z,0.00
2023-04-06T01:21:38.862Z,0.00
2023-04-06T01:22:38.847Z,0.00
2023-04-06T01:23:38.829Z,0.00
2023-04-06T01:24:38.819Z,0.00
2023-04-06T01:25:38.805Z,0.00
2023-04-06T01:26:38.802Z,0.00
2023-04-06T01:27:38.809Z,0.00
2023-04-06T01:28:38.770Z,0.00
2023-04-06T01:29:38.761Z,0.00
2023-04-06T01:30:38.748Z,0.00
2023-04-06T01:31:43.987Z,0.00
2023-04-06T01:32:38.764Z,0.00
2023-04-06T01:33:38.724Z,0.00
2023-04-06T01:34:38.774Z,0.00
2023-04-06T01:35:38.751Z,0.00
2023-04-06T01:36:38.680Z,0.00
2023-04-06T01:37:38.678Z,0.00
2023-04-06T01:38:38.661Z,0.00
2023-04-06T01:39:38.672Z,0.00
2023-04-06T01:40:38.639Z,0.00
2023-04-06T01:41:38.624Z,0.00
2023-04-06T01:42:43.649Z,0.00
2023-04-06T01:43:38.600Z,0.00
2023-04-06T01:44:38.586Z,0.00
2023-04-06T01:45:38.588Z,0.00
2023-04-06T01:46:38.600Z,0.00
2023-04-06T01:47:38.639Z,0.00
2023-04-06T01:48:38.540Z,0.00
2023-04-06T01:49:38.531Z,0.00
2023-04-06T01:50:38.545Z,0.00
2023-04-06T01:51:38.518Z,0.00
2023-04-06T01:52:38.507Z,0.00
2023-04-06T01:53:43.511Z,0.00
2023-04-06T01:54:38.483Z,0.00
2023-04-06T01:55:38.466Z,0.00
2023-04-06T01:56:38.451Z,0.00
2023-04-06T01:57:38.463Z,0.00
2023-04-06T01:58:38.434Z,0.00
2023-04-06T01:59:38.501Z,0.00
2023-04-06T02:00:38.441Z,0.00
2023-04-06T02:01:38.426Z,0.00
2023-04-06T02:02:38.446Z,0.00
2023-04-06T02:03:38.378Z,0.00
2023-04-06T02:04:43.384Z,0.00
2023-04-06T02:05:38.349Z,0.00
2023-04-06T02:06:38.364Z,0.00
2023-04-06T02:07:38.341Z,0.00
2023-04-06T02:08:38.316Z,0.00
2023-04-06T02:09:38.312Z,0.00
2023-04-06T02:10:38.300Z,0.00
2023-04-06T02:11:38.282Z,0.00
2023-04-06T02:12:38.280Z,0.00
2023-04-06T02:13:38.261Z,0.00
2023-04-06T02:14:38.246Z,0.00
2023-04-06T02:15:43.271Z,0.00
2023-04-06T02:16:38.248Z,0.00
2023-04-06T02:17:38.250Z,0.00
2023-04-06T02:18:38.206Z,0.00
2023-04-06T02:19:38.197Z,0.00
2023-04-06T02:20:38.182Z,0.00
2023-04-06T02:21:38.183Z,0.00
2023-04-06T02:22:38.189Z,0.00
2023-04-06T02:23:38.151Z,0.00
2023-04-06T02:24:38.135Z,0.00
2023-04-06T02:25:38.128Z,0.00
2023-04-06T02:26:43.135Z,0.00
2023-04-06T02:27:38.125Z,0.00
2023-04-06T02:28:38.088Z,0.00
2023-04-06T02:29:38.108Z,0.00
2023-04-06T02:30:38.070Z,0.00
2023-04-06T02:31:38.079Z,0.00
2023-04-06T02:32:38.095Z,0.00
2023-04-06T02:33:38.048Z,0.00
2023-04-06T02:34:38.021Z,0.00
2023-04-06T02:35:38.028Z,0.00
2023-04-06T02:36:37.999Z,0.00
2023-04-06T02:37:43.042Z,0.00
2023-04-06T02:38:37.994Z,0.00
2023-04-06T02:39:37.990Z,0.00
2023-04-06T02:40:37.953Z,0.00
2023-04-06T02:41:37.945Z,0.00
2023-04-06T02:42:37.944Z,0.00
2023-04-06T02:43:37.936Z,0.00
2023-04-06T02:44:37.913Z,0.00
2023-04-06T02:45:37.929Z,0.00
2023-04-06T02:46:37.891Z,0.00
2023-04-06T02:47:37.921Z,0.00
2023-04-06T02:48:42.889Z,0.00
2023-04-06T02:49:37.857Z,0.00
2023-04-06T02:50:37.839Z,0.00
2023-04-06T02:51:37.843Z,0.00
2023-04-06T02:52:37.836Z,0.00
2023-04-06T02:53:37.836Z,0.00
2023-04-06T02:54:37.800Z,0.00
2023-04-06T02:55:37.788Z,0.00
2023-04-06T02:56:37.777Z,0.00
2023-04-06T02:57:37.786Z,0.00
2023-04-06T02:58:37.758Z,0.00
2023-04-06T02:59:42.826Z,0.00
2023-04-06T03:00:37.759Z,0.00
2023-04-06T03:01:37.763Z,0.00
2023-04-06T03:02:37.907Z,0.00
2023-04-06T03:03:37.864Z,0.00
2023-04-06T03:04:37.709Z,0.00
2023-04-06T03:05:37.675Z,0.00
2023-04-06T03:06:37.661Z,0.00
2023-04-06T03:07:37.668Z,0.00
2023-04-06T03:08:37.639Z,0.00
2023-04-06T03:09:37.652Z,0.00
2023-04-06T03:10:42.639Z,0.00
2023-04-06T03:11:37.622Z,0.00
2023-04-06T03:12:37.603Z,0.00
2023-04-06T03:13:37.581Z,0.00
2023-04-06T03:14:37.589Z,0.00
2023-04-06T03:15:37.603Z,0.00
2023-04-06T03:16:37.546Z,0.00
2023-04-06T03:17:37.562Z,0.00
2023-04-06T03:18:37.529Z,0.00
2023-04-06T03:19:37.520Z,0.00
2023-04-06T03:20:37.500Z,0.00
2023-04-06T03:21:42.523Z,0.00
2023-04-06T03:22:37.486Z,0.00
2023-04-06T03:23:37.465Z,0.00
2023-04-06T03:24:37.452Z,0.00
2023-04-06T03:25:37.462Z,0.00
2023-04-06T03:26:37.432Z,0.00
2023-04-06T03:27:37.439Z,0.00
2023-04-06T03:28:37.415Z,0.00
2023-04-06T03:29:37.395Z,0.00
2023-04-06T03:30:37.387Z,0.00
2023-04-06T03:31:37.416Z,0.00
2023-04-06T03:32:42.431Z,0.00
2023-04-06T03:33:37.368Z,0.00
2023-04-06T03:34:37.334Z,0.00
2023-04-06T03:35:37.364Z,0.00
2023-04-06T03:36:37.315Z,0.00
2023-04-06T03:37:37.314Z,0.00
2023-04-06T03:38:38.693Z,0.00
2023-04-06T03:39:37.309Z,0.00
2023-04-06T03:40:37.280Z,0.00
2023-04-06T03:41:37.296Z,0.00
2023-04-06T03:42:37.257Z,0.00
2023-04-06T03:43:42.259Z,0.00
2023-04-06T03:44:37.228Z,0.00
2023-04-06T03:45:37.222Z,0.00
2023-04-06T03:46:37.225Z,0.00
2023-04-06T03:47:37.262Z,0.00
2023-04-06T03:48:37.180Z,0.00
2023-04-06T03:49:39.870Z,0.00
2023-04-06T03:50:37.153Z,0.00
2023-04-06T03:51:37.152Z,0.00
2023-04-06T03:52:37.150Z,0.00
2023-04-06T03:53:37.123Z,0.00
2023-04-06T03:54:42.129Z,0.00
2023-04-06T03:55:37.098Z,0.00
2023-04-06T03:56:37.093Z,0.00
2023-04-06T03:57:37.120Z,0.00
2023-04-06T03:58:37.073Z,0.00
2023-04-06T03:59:37.143Z,0.00
2023-04-06T04:00:37.045Z,0.00
2023-04-06T04:01:37.137Z,0.00
2023-04-06T04:02:37.109Z,0.00
2023-04-06T04:03:37.098Z,0.00
2023-04-06T04:04:37.061Z,0.00
2023-04-06T04:05:42.008Z,0.00
2023-04-06T04:06:36.976Z,0.00
2023-04-06T04:07:36.971Z,0.00
2023-04-06T04:08:36.976Z,0.00
2023-04-06T04:09:36.948Z,0.00
2023-04-06T04:10:36.941Z,0.00
2023-04-06T04:11:36.920Z,0.00
2023-04-06T04:12:36.913Z,0.00
2023-04-06T04:13:36.919Z,0.00
2023-04-06T04:14:36.891Z,0.00
2023-04-06T04:15:36.896Z,0.00
2023-04-06T04:16:41.905Z,0.00
2023-04-06T04:17:36.918Z,0.00
2023-04-06T04:18:36.843Z,0.00
2023-04-06T04:19:36.830Z,0.00
2023-04-06T04:20:36.819Z,0.00
2023-04-06T04:21:36.818Z,0.00
2023-04-06T04:22:36.796Z,0.00
2023-04-06T04:23:37.481Z,0.00
2023-04-06T04:24:36.787Z,0.00
2023-04-06T04:25:36.776Z,0.00
2023-04-06T04:26:36.758Z,4.00
2023-04-06T04:27:41.797Z,4.00
2023-04-06T04:28:36.739Z,0.00
2023-04-06T04:29:36.747Z,4.00
2023-04-06T04:30:36.713Z,4.00
2023-04-06T04:31:36.759Z,4.00
2023-04-06T04:32:36.699Z,4.00
2023-04-06T04:33:36.707Z,4.00
2023-04-06T04:34:36.670Z,8.00
2023-04-06T04:35:36.698Z,12.00
2023-04-06T04:36:36.663Z,12.00
2023-04-06T04:37:36.641Z,12.00
2023-04-06T04:38:41.660Z,12.00
2023-04-06T04:39:36.630Z,20.00
2023-04-06T04:40:36.620Z,20.00
2023-04-06T04:41:36.613Z,24.00
2023-04-06T04:42:36.583Z,28.00
2023-04-06T04:43:36.589Z,32.00
2023-04-06T04:44:36.561Z,40.00
2023-04-06T04:45:36.601Z,44.00
2023-04-06T04:46:36.571Z,52.00
2023-04-06T04:47:36.598Z,56.00
2023-04-06T04:48:36.531Z,68.00
2023-04-06T04:49:41.534Z,76.00
2023-04-06T04:50:36.501Z,84.00
2023-04-06T04:51:36.499Z,92.00
2023-04-06T04:52:36.474Z,108.00
2023-04-06T04:53:36.480Z,116.00
2023-04-06T04:54:36.457Z,132.00
2023-04-06T04:55:36.446Z,144.00
2023-04-06T04:56:36.447Z,156.00
2023-04-06T04:57:36.437Z,168.00
2023-04-06T04:58:36.421Z,188.00
2023-04-06T04:59:36.508Z,204.00
2023-04-06T05:00:41.431Z,220.00
2023-04-06T05:01:47.656Z,240.00
2023-04-06T05:02:36.439Z,260.00
2023-04-06T05:03:36.402Z,276.00
2023-04-06T05:04:36.343Z,296.00
2023-04-06T05:05:36.333Z,316.00
2023-04-06T05:06:36.329Z,340.00
2023-04-06T05:07:36.313Z,364.00
2023-04-06T05:08:36.307Z,384.00
2023-04-06T05:09:36.302Z,408.00
2023-04-06T05:10:36.291Z,432.00
2023-04-06T05:11:41.301Z,456.00
2023-04-06T05:12:36.257Z,484.00
2023-04-06T05:13:36.256Z,508.00
2023-04-06T05:14:36.302Z,532.00
2023-04-06T05:15:36.285Z,560.00
2023-04-06T05:16:36.306Z,584.00
2023-04-06T05:17:36.289Z,608.00
2023-04-06T05:18:36.238Z,636.00
2023-04-06T05:19:36.218Z,668.00
2023-04-06T05:20:36.200Z,696.00
2023-04-06T05:21:36.198Z,724.00
2023-04-06T05:22:41.176Z,760.00
2023-04-06T05:23:36.150Z,792.00
2023-04-06T05:24:36.153Z,824.00
2023-04-06T05:25:36.113Z,852.00
2023-04-06T05:26:36.102Z,884.00
2023-04-06T05:27:36.105Z,916.00
2023-04-06T05:28:36.094Z,948.00
2023-04-06T05:29:36.073Z,980.00
2023-04-06T05:30:36.060Z,1012.00
2023-04-06T05:31:36.116Z,1048.00
2023-04-06T05:32:36.118Z,1080.00
2023-04-06T05:33:41.082Z,1116.00
2023-04-06T05:34:36.016Z,1148.00
2023-04-06T05:35:36.038Z,1176.00
2023-04-06T05:36:35.995Z,1212.00
2023-04-06T05:37:35.983Z,1252.00
2023-04-06T05:38:35.974Z,1296.00
2023-04-06T05:39:35.970Z,1348.00
2023-04-06T05:40:35.942Z,1416.00
2023-04-06T05:41:35.930Z,1468.00
2023-04-06T05:42:35.923Z,1524.00
2023-04-06T05:43:35.922Z,1608.00
2023-04-06T05:44:40.917Z,1692.00
2023-04-06T05:45:35.909Z,1836.00
2023-04-06T05:46:36.003Z,2196.00
2023-04-06T05:47:35.910Z,2544.00
2023-04-06T05:48:35.999Z,2684.00
2023-04-06T05:49:35.841Z,2772.00
2023-04-06T05:50:35.827Z,2888.00
2023-04-06T05:51:35.821Z,2984.00
2023-04-06T05:52:35.805Z,3036.00
2023-04-06T05:53:35.797Z,2972.00
2023-04-06T05:54:35.777Z,2724.00
2023-04-06T05:55:40.799Z,2404.00
2023-04-06T05:56:35.757Z,2192.00
2023-04-06T05:57:35.751Z,2088.00
2023-04-06T05:58:35.742Z,2048.00
2023-04-06T05:59:35.762Z,2064.00
2023-04-06T06:00:35.712Z,2096.00
2023-04-06T06:01:35.762Z,2124.00
2023-04-06T06:02:35.788Z,2156.00
2023-04-06T06:03:35.704Z,2184.00
2023-04-06T06:04:35.748Z,2208.00
2023-04-06T06:05:35.665Z,2224.00
2023-04-06T06:06:40.674Z,2244.00
2023-04-06T06:07:35.667Z,2264.00
2023-04-06T06:08:35.622Z,2288.00
2023-04-06T06:09:35.623Z,2312.00
2023-04-06T06:10:35.597Z,2340.00
2023-04-06T06:11:35.583Z,2376.00
2023-04-06T06:12:35.571Z,2404.00
2023-04-06T06:13:35.571Z,2436.00
2023-04-06T06:14:35.551Z,2472.00
2023-04-06T06:15:35.544Z,2504.00
2023-04-06T06:16:35.546Z,2540.00
2023-04-06T06:17:40.574Z,2576.00
2023-04-06T06:18:35.532Z,2616.00
2023-04-06T06:19:35.717Z,2656.00
2023-04-06T06:20:35.502Z,2692.00
2023-04-06T06:21:35.505Z,2736.00
2023-04-06T06:22:35.461Z,2772.00
2023-04-06T06:23:35.463Z,2804.00
2023-04-06T06:24:35.445Z,2836.00
2023-04-06T06:25:35.423Z,2868.00
2023-04-06T06:26:35.409Z,2904.00
2023-04-06T06:27:35.412Z,2940.00
2023-04-06T06:28:40.418Z,2972.00
2023-04-06T06:29:35.379Z,3004.00
2023-04-06T06:30:35.384Z,3040.00
2023-04-06T06:31:35.385Z,3088.00
2023-04-06T06:32:35.420Z,3132.00
2023-04-06T06:33:35.348Z,3176.00
2023-04-06T06:34:35.322Z,3228.00
2023-04-06T06:35:35.331Z,3276.00
2023-04-06T06:36:35.586Z,3340.00
2023-04-06T06:37:35.318Z,3392.00
2023-04-06T06:38:35.296Z,3452.00
2023-04-06T06:39:40.309Z,3496.00
2023-04-06T06:40:35.317Z,3536.00
2023-04-06T06:41:35.266Z,3568.00
2023-04-06T06:42:35.236Z,3596.00
2023-04-06T06:43:35.241Z,3636.00
2023-04-06T06:44:35.220Z,3668.00
2023-04-06T06:45:35.224Z,3688.00
2023-04-06T06:46:35.196Z,3856.00
2023-04-06T06:47:35.227Z,4036.00
2023-04-06T06:48:35.182Z,4276.00
2023-04-06T06:49:35.161Z,4540.00
2023-04-06T06:50:40.176Z,4788.00
2023-04-06T06:51:35.151Z,5048.00
2023-04-06T06:52:35.189Z,5416.00
2023-04-06T06:53:35.136Z,5924.00
2023-04-06T06:54:35.114Z,6588.00
2023-04-06T06:55:35.089Z,7172.00
2023-04-06T06:56:35.077Z,7456.00
2023-04-06T06:57:35.070Z,7700.00
2023-04-06T06:58:35.070Z,7560.00
2023-04-06T06:59:35.100Z,7324.00
2023-04-06T07:00:35.034Z,7280.00
2023-04-06T07:01:40.112Z,7332.00
2023-04-06T07:02:35.022Z,7616.00
2023-04-06T07:03:35.022Z,7604.00
2023-04-06T07:04:35.031Z,7600.00
2023-04-06T07:05:34.988Z,7276.00
2023-04-06T07:06:34.983Z,7172.00
2023-04-06T07:07:34.950Z,7428.00
2023-04-06T07:08:35.004Z,7612.00
2023-04-06T07:09:34.945Z,7256.00
2023-04-06T07:10:34.921Z,6100.00
2023-04-06T07:11:34.918Z,5844.00
2023-04-06T07:12:39.927Z,6116.00
2023-04-06T07:13:34.909Z,6776.00
2023-04-06T07:14:34.889Z,6640.00
2023-04-06T07:15:34.860Z,7064.00
2023-04-06T07:16:34.897Z,8212.00
2023-04-06T07:17:34.891Z,8964.00
2023-04-06T07:18:36.232Z,9520.00
2023-04-06T07:19:34.820Z,9864.00
2023-04-06T07:20:34.849Z,9592.00
2023-04-06T07:21:34.844Z,9420.00
2023-04-06T07:22:34.788Z,8912.00
2023-04-06T07:23:39.884Z,7956.00
2023-04-06T07:24:34.761Z,7628.00
2023-04-06T07:25:34.762Z,7720.00
2023-04-06T07:26:34.743Z,8656.00
2023-04-06T07:27:34.731Z,9380.00
2023-04-06T07:28:34.721Z,9248.00
2023-04-06T07:29:34.740Z,8488.00
2023-04-06T07:30:36.889Z,7944.00
2023-04-06T07:31:34.756Z,8364.00
2023-04-06T07:32:34.723Z,9216.00
2023-04-06T07:33:34.662Z,10392.00
2023-04-06T07:34:39.672Z,10152.00
2023-04-06T07:35:34.697Z,10196.00
2023-04-06T07:36:34.624Z,9684.00
2023-04-06T07:37:34.614Z,8956.00
2023-04-06T07:38:34.600Z,8824.00
2023-04-06T07:39:34.620Z,8516.00
2023-04-06T07:40:34.599Z,8320.00
2023-04-06T07:41:34.604Z,7428.00
2023-04-06T07:42:34.556Z,6472.00
2023-04-06T07:43:34.545Z,6052.00
2023-04-06T07:44:34.552Z,6160.00
2023-04-06T07:45:39.613Z,6176.00
2023-04-06T07:46:34.562Z,6092.00
2023-04-06T07:47:34.538Z,6260.00
2023-04-06T07:48:34.497Z,6600.00
2023-04-06T07:49:34.483Z,6988.00
2023-04-06T07:50:34.469Z,8060.00
2023-04-06T07:51:34.450Z,9324.00
2023-04-06T07:52:36.977Z,9328.00
2023-04-06T07:53:34.437Z,8372.00
2023-04-06T07:54:34.433Z,8152.00
2023-04-06T07:55:34.437Z,8224.00
2023-04-06T07:56:39.425Z,8488.00
2023-04-06T07:57:34.385Z,8796.00
2023-04-06T07:58:34.375Z,8672.00
2023-04-06T07:59:34.394Z,8896.00
2023-04-06T08:00:34.365Z,11608.00
2023-04-06T08:01:34.341Z,12216.00
2023-04-06T08:02:34.483Z,11716.00
2023-04-06T08:03:34.627Z,11256.00
2023-04-06T08:04:34.364Z,11656.00
2023-04-06T08:05:34.362Z,12868.00
2023-04-06T08:06:34.285Z,13204.00
2023-04-06T08:07:39.298Z,13328.00
2023-04-06T08:08:34.261Z,13348.00
2023-04-06T08:09:34.260Z,14020.00
2023-04-06T08:10:34.240Z,14848.00
2023-04-06T08:11:34.251Z,14880.00
2023-04-06T08:12:34.217Z,13996.00
2023-04-06T08:13:34.208Z,13424.00
2023-04-06T08:14:34.204Z,12720.00
2023-04-06T08:15:34.192Z,11884.00
2023-04-06T08:16:34.168Z,13572.00
2023-04-06T08:17:34.183Z,13700.00
2023-04-06T08:18:39.171Z,14256.00
2023-04-06T08:19:34.156Z,13884.00
2023-04-06T08:20:34.127Z,14624.00
2023-04-06T08:21:34.127Z,12952.00
2023-04-06T08:22:34.110Z,13332.00
2023-04-06T08:23:34.092Z,13300.00
2023-04-06T08:24:34.088Z,13220.00
2023-04-06T08:25:34.072Z,13188.00
2023-04-06T08:26:34.065Z,11464.00
2023-04-06T08:27:34.073Z,13028.00
2023-04-06T08:28:34.033Z,9376.00
2023-04-06T08:29:39.057Z,10072.00
2023-04-06T08:30:34.015Z,8080.00
2023-04-06T08:31:34.010Z,7928.00
2023-04-06T08:32:34.015Z,8676.00
2023-04-06T08:33:33.980Z,10172.00
2023-04-06T08:34:33.999Z,11360.00
2023-04-06T08:35:33.953Z,11920.00
2023-04-06T08:36:33.950Z,12400.00
2023-04-06T08:37:33.928Z,11788.00
2023-04-06T08:38:33.920Z,12104.00
2023-04-06T08:39:33.918Z,12348.00
2023-04-06T08:40:38.914Z,12028.00
2023-04-06T08:41:33.891Z,11092.00
2023-04-06T08:42:33.877Z,10744.00
2023-04-06T08:43:33.880Z,11336.00
2023-04-06T08:44:33.914Z,11996.00
2023-04-06T08:45:33.841Z,10992.00
2023-04-06T08:46:33.980Z,10224.00
2023-04-06T08:47:33.846Z,10304.00
2023-04-06T08:48:33.811Z,10464.00
2023-04-06T08:49:33.800Z,9992.00
2023-04-06T08:50:33.786Z,9764.00
2023-04-06T08:51:38.794Z,10276.00
2023-04-06T08:52:33.763Z,10488.00
2023-04-06T08:53:33.752Z,10492.00
2023-04-06T08:54:33.759Z,10144.00
2023-04-06T08:55:33.725Z,11908.00
2023-04-06T08:56:33.715Z,10244.00
2023-04-06T08:57:33.707Z,10164.00
2023-04-06T08:58:38.270Z,11520.00
2023-04-06T08:59:33.803Z,10456.00
2023-04-06T09:00:33.679Z,13584.00
2023-04-06T09:01:33.693Z,13004.00
2023-04-06T09:02:38.729Z,10100.00
2023-04-06T09:03:33.777Z,10520.00
2023-04-06T09:04:33.706Z,11148.00
2023-04-06T09:05:33.615Z,12792.00
2023-04-06T09:06:33.625Z,12736.00
2023-04-06T09:07:33.594Z,11204.00
2023-04-06T09:08:33.584Z,9140.00
2023-04-06T09:09:33.577Z,8548.00
2023-04-06T09:10:33.556Z,7720.00
2023-04-06T09:11:33.547Z,6980.00
2023-04-06T09:12:33.540Z,7104.00
2023-04-06T09:13:38.543Z,7332.00
2023-04-06T09:14:33.520Z,7932.00
2023-04-06T09:15:33.523Z,9236.00
2023-04-06T09:16:33.603Z,13368.00
2023-04-06T09:17:33.490Z,15840.00
2023-04-06T09:18:33.484Z,14756.00
2023-04-06T09:19:33.468Z,14760.00
2023-04-06T09:20:33.446Z,14044.00
2023-04-06T09:21:33.445Z,14084.00
2023-04-06T09:22:33.424Z,14316.00
2023-04-06T09:23:33.493Z,15840.00
2023-04-06T09:24:38.438Z,15936.00
2023-04-06T09:25:33.387Z,17056.00
2023-04-06T09:26:33.379Z,17472.00
2023-04-06T09:27:33.374Z,19872.00
2023-04-06T09:28:33.354Z,20288.00
2023-04-06T09:29:33.350Z,20960.00
2023-04-06T09:30:33.337Z,23328.00
2023-04-06T09:31:33.490Z,27776.00
2023-04-06T09:32:33.352Z,35104.00
2023-04-06T09:33:33.305Z,37568.00
2023-04-06T09:34:33.307Z,37152.00
2023-04-06T09:35:38.330Z,30560.00
2023-04-06T09:36:33.284Z,24800.00
2023-04-06T09:37:33.263Z,18240.00
2023-04-06T09:38:33.244Z,18656.00
2023-04-06T09:39:33.240Z,29248.00
2023-04-06T09:40:33.219Z,38112.00
2023-04-06T09:41:33.216Z,32832.00
2023-04-06T09:42:33.228Z,38624.00
2023-04-06T09:43:33.209Z,33440.00
2023-04-06T09:44:33.196Z,36704.00
2023-04-06T09:45:33.162Z,25440.00
2023-04-06T09:46:55.172Z,34144.00
2023-04-06T09:47:34.247Z,38432.00
2023-04-06T09:48:33.188Z,46240.00
2023-04-06T09:49:33.133Z,53536.00
2023-04-06T09:50:33.112Z,45728.00
2023-04-06T09:51:35.596Z,44864.00
2023-04-06T09:52:33.088Z,38272.00
2023-04-06T09:53:33.070Z,26496.00
2023-04-06T09:54:33.074Z,20160.00
2023-04-06T09:55:33.075Z,17280.00
2023-04-06T09:56:33.036Z,20224.00
2023-04-06T09:57:38.055Z,21120.00
2023-04-06T09:58:33.137Z,19776.00
2023-04-06T09:59:33.084Z,17600.00
2023-04-06T10:00:33.031Z,20320.00
2023-04-06T10:01:33.081Z,24000.00
2023-04-06T10:02:33.073Z,16096.00
2023-04-06T10:03:33.071Z,18784.00
2023-04-06T10:04:32.957Z,26720.00
2023-04-06T10:05:32.932Z,24896.00
2023-04-06T10:06:32.919Z,43136.00
2023-04-06T10:07:32.946Z,32576.00
2023-04-06T10:08:37.923Z,24032.00
2023-04-06T10:09:32.883Z,28416.00
2023-04-06T10:10:32.883Z,33152.00
2023-04-06T10:11:32.858Z,27168.00
2023-04-06T10:12:32.888Z,21344.00
2023-04-06T10:13:32.847Z,37600.00
2023-04-06T10:14:32.828Z,49440.00
2023-04-06T10:15:32.826Z,55648.00
2023-04-06T10:16:32.853Z,41728.00
2023-04-06T10:17:32.836Z,27104.00
2023-04-06T10:18:32.805Z,24768.00
2023-04-06T10:19:37.861Z,28032.00
2023-04-06T10:20:32.762Z,33184.00
2023-04-06T10:21:32.744Z,42496.00
2023-04-06T10:22:32.747Z,60288.00
2023-04-06T10:23:33.342Z,68736.00
2023-04-06T10:24:32.715Z,56832.00
2023-04-06T10:25:32.707Z,42304.00
2023-04-06T10:26:32.715Z,10628.00
2023-04-06T10:27:32.692Z,11308.00
2023-04-06T10:28:32.670Z,11664.00
2023-04-06T10:29:32.656Z,13796.00
2023-04-06T10:30:37.679Z,28544.00
2023-04-06T10:31:32.641Z,33184.00
2023-04-06T10:32:32.701Z,55488.00
2023-04-06T10:33:32.615Z,34208.00
2023-04-06T10:34:32.650Z,32384.00
2023-04-06T10:35:32.615Z,30272.00
2023-04-06T10:36:32.581Z,33056.00
2023-04-06T10:37:32.569Z,39008.00
2023-04-06T10:38:32.585Z,27680.00
2023-04-06T10:39:32.555Z,27168.00
2023-04-06T10:40:32.552Z,32192.00
2023-04-06T10:41:37.552Z,41472.00
2023-04-06T10:42:32.554Z,39680.00
2023-04-06T10:43:32.517Z,41248.00
2023-04-06T10:44:32.508Z,39808.00
2023-04-06T10:45:32.543Z,42208.00
2023-04-06T10:46:32.492Z,43520.00
2023-04-06T10:47:32.475Z,37888.00
2023-04-06T10:48:32.447Z,39232.00
2023-04-06T10:49:32.452Z,49280.00
2023-04-06T10:50:32.483Z,41120.00
2023-04-06T10:51:32.423Z,52832.00
2023-04-06T10:52:37.427Z,47328.00
2023-04-06T10:53:32.397Z,52544.00
2023-04-06T10:54:32.385Z,43968.00
2023-04-06T10:55:32.390Z,56192.00
2023-04-06T10:56:32.362Z,36096.00
2023-04-06T10:57:32.401Z,51072.00
2023-04-06T10:58:32.335Z,46304.00
2023-04-06T10:59:32.379Z,36576.00
2023-04-06T11:00:47.117Z,16000.00
2023-04-06T11:01:32.344Z,18880.00
2023-04-06T11:02:32.379Z,26976.00
2023-04-06T11:03:37.299Z,28576.00
2023-04-06T11:04:32.289Z,33440.00
2023-04-06T11:05:32.264Z,38720.00
2023-04-06T11:06:32.275Z,42048.00
2023-04-06T11:07:32.273Z,37984.00
2023-04-06T11:08:32.235Z,20960.00
2023-04-06T11:09:32.207Z,24928.00
2023-04-06T11:10:32.198Z,22496.00
2023-04-06T11:11:32.192Z,35552.00
2023-04-06T11:12:32.171Z,31520.00
2023-04-06T11:13:32.203Z,28704.00
2023-04-06T11:14:37.189Z,48288.00
2023-04-06T11:15:32.136Z,19840.00
2023-04-06T11:16:32.265Z,22688.00
2023-04-06T11:17:32.127Z,33312.00
2023-04-06T11:18:32.106Z,31328.00
2023-04-06T11:19:32.116Z,32608.00
2023-04-06T11:20:32.103Z,42112.00
2023-04-06T11:21:32.085Z,18752.00
2023-04-06T11:22:32.094Z,17792.00
2023-04-06T11:23:32.049Z,24704.00
2023-04-06T11:24:32.038Z,16096.00
2023-04-06T11:25:37.103Z,19264.00
2023-04-06T11:26:32.022Z,18720.00
2023-04-06T11:27:32.018Z,25888.00
2023-04-06T11:28:32.019Z,16832.00
2023-04-06T11:29:32.172Z,17568.00
2023-04-06T11:30:31.974Z,15600.00
2023-04-06T11:31:32.111Z,21920.00
2023-04-06T11:32:32.023Z,33440.00
2023-04-06T11:33:31.938Z,18624.00
2023-04-06T11:34:31.934Z,30112.00
2023-04-06T11:35:31.914Z,21056.00
2023-04-06T11:36:36.937Z,32384.00
2023-04-06T11:37:31.892Z,33376.00
2023-04-06T11:38:31.907Z,40096.00
2023-04-06T11:39:31.922Z,34592.00
2023-04-06T11:40:31.860Z,21024.00
2023-04-06T11:41:31.894Z,29152.00
2023-04-06T11:42:31.837Z,25408.00
2023-04-06T11:43:31.825Z,36832.00
2023-04-06T11:44:31.814Z,24256.00
2023-04-06T11:45:31.840Z,24992.00
2023-04-06T11:46:31.812Z,37760.00
2023-04-06T11:47:36.937Z,18240.00
2023-04-06T11:48:31.838Z,16800.00
2023-04-06T11:49:31.759Z,16480.00
2023-04-06T11:50:31.789Z,16352.00
2023-04-06T11:51:31.739Z,15396.00
2023-04-06T11:52:31.769Z,15744.00
2023-04-06T11:53:31.718Z,15432.00
2023-04-06T11:54:31.784Z,14932.00
2023-04-06T11:55:33.276Z,15252.00
2023-04-06T11:56:31.693Z,17376.00
2023-04-06T11:57:31.675Z,20384.00
2023-04-06T11:58:36.709Z,26016.00
2023-04-06T11:59:31.673Z,39584.00
2023-04-06T12:00:31.631Z,45696.00
2023-04-06T12:01:34.166Z,31456.00
2023-04-06T12:02:31.651Z,37440.00
2023-04-06T12:03:31.741Z,45120.00
2023-04-06T12:04:31.707Z,43168.00
2023-04-06T12:05:31.577Z,49120.00
2023-04-06T12:06:31.576Z,53792.00
2023-04-06T12:07:31.553Z,41632.00
2023-04-06T12:08:31.550Z,46496.00
2023-04-06T12:09:36.594Z,56160.00
2023-04-06T12:10:31.548Z,38112.00
2023-04-06T12:11:31.514Z,32448.00
2023-04-06T12:12:31.493Z,28352.00
2023-04-06T12:13:31.484Z,27872.00
2023-04-06T12:14:31.495Z,27392.00
2023-04-06T12:15:31.458Z,20480.00
2023-04-06T12:16:31.533Z,21952.00
2023-04-06T12:17:31.480Z,20064.00
2023-04-06T12:18:31.465Z,19968.00
2023-04-06T12:19:32.537Z,22912.00
2023-04-06T12:20:36.421Z,24032.00
2023-04-06T12:21:31.404Z,22720.00
2023-04-06T12:22:31.380Z,23904.00
2023-04-06T12:23:31.370Z,25920.00
2023-04-06T12:24:31.387Z,25056.00
2023-04-06T12:25:32.379Z,24704.00